Ganser Bar, California
Current Conditions -  °F | °C
As of 11:35 PM on Friday 24 Oct 2014 (Local Time) from KCIC Reporting Station
Overcast Overcast  
Wind Chill: 66°   Ceiling: 5000
Heat Index: 66°   Visibility: 10mi
Dew Point: 50°   Wind: 15mph
Humidity: 56%   Direction: 160°SSE
Pressure: 29.86"   Gusts: NA
Location:  40.0464°N, 121.282°W
Report Text: KCIC 250635Z AUTO 16013KT 10SM OVC050 19/10 A2986 RMK AO1
Loading
Personal Weather Stations






























Interactive Weather Map
Tropical Storm Tracking
New forecast layout! Learn more

10-Day Weather Forecast

Advertisements
Track Severe Weather on mobile